createdAt,value
2022-09-15T00:03:18.152Z,99345.97
2022-09-15T00:08:19.832Z,99344.78
2022-09-15T00:13:22.275Z,99346.44
2022-09-15T00:18:24.247Z,99347.38
2022-09-15T00:23:26.048Z,99334.59
2022-09-15T00:28:27.516Z,99329.38
2022-09-15T00:33:28.907Z,99336.66
2022-09-15T00:38:31.046Z,99334.34
2022-09-15T00:43:56.621Z,99334.38
2022-09-15T00:49:05.017Z,99336.50
2022-09-15T00:54:12.583Z,99323.13
2022-09-15T00:59:18.998Z,99325.94
2022-09-15T01:04:20.547Z,99319.41
2022-09-15T01:09:31.139Z,99320.59
2022-09-15T01:14:32.556Z,99311.47
2022-09-15T01:20:00.126Z,99309.69
2022-09-15T01:25:37.830Z,99314.69
2022-09-15T01:31:08.287Z,99311.53
2022-09-15T01:36:43.023Z,99303.31
2022-09-15T01:41:48.835Z,99297.53
2022-09-15T01:46:55.099Z,99289.97
2022-09-15T01:51:56.791Z,99282.25
2022-09-15T01:56:58.581Z,99291.97
2022-09-15T02:02:09.949Z,99297.03
2022-09-15T02:07:51.828Z,99291.81
2022-09-15T02:13:17.161Z,99294.16
2022-09-15T02:18:59.598Z,99292.13
2022-09-15T02:24:07.506Z,99288.97
2022-09-15T02:29:13.951Z,99283.81
2022-09-15T02:34:23.896Z,99291.56
2022-09-15T02:39:33.168Z,99289.94
2022-09-15T02:44:35.300Z,99295.09
2022-09-15T02:49:36.742Z,99294.16
2022-09-15T02:54:38.253Z,99287.34
2022-09-15T02:59:58.905Z,99285.72
2022-09-15T03:05:00.358Z,99297.53
2022-09-15T03:10:01.763Z,99292.13
2022-09-15T03:15:03.319Z,99297.16
2022-09-15T03:20:05.961Z,99291.16
2022-09-15T03:25:07.870Z,99296.22
2022-09-15T03:30:10.626Z,99293.13
2022-09-15T03:35:12.003Z,99299.78
2022-09-15T03:40:14.333Z,99310.56
2022-09-15T03:45:15.955Z,99300.81
2022-09-15T03:50:17.454Z,99299.88
2022-09-15T03:55:18.842Z,99303.81
2022-09-15T04:00:20.431Z,99306.63
2022-09-15T04:05:21.895Z,99306.63
2022-09-15T04:10:24.822Z,99308.44
2022-09-15T04:15:26.194Z,99303.00
2022-09-15T04:20:27.622Z,99296.47
2022-09-15T04:25:29.522Z,99294.00
2022-09-15T04:30:30.943Z,99311.38
2022-09-15T04:35:32.375Z,99309.09
2022-09-15T04:40:33.967Z,99312.91
2022-09-15T04:45:35.430Z,99313.97
2022-09-15T04:50:36.843Z,99321.25
2022-09-15T04:55:38.730Z,99322.69
2022-09-15T05:00:45.306Z,99337.16
2022-09-15T05:05:47.903Z,99325.44
2022-09-15T05:10:49.325Z,99332.38
2022-09-15T05:15:50.776Z,99327.22
2022-09-15T05:20:58.244Z,99338.84
2022-09-15T05:26:01.612Z,99333.44
2022-09-15T05:31:08.891Z,99337.38
2022-09-15T05:36:10.584Z,99340.66
2022-09-15T05:41:17.592Z,99337.16
2022-09-15T05:46:20.406Z,99351.00
2022-09-15T05:51:22.567Z,99354.06
2022-09-15T05:56:23.997Z,99358.41
2022-09-15T06:01:30.131Z,99353.81
2022-09-15T06:06:32.498Z,99362.34
2022-09-15T06:11:33.972Z,99358.84
2022-09-15T06:16:35.975Z,99369.03
2022-09-15T06:21:37.645Z,99363.19
2022-09-15T06:26:39.053Z,99368.09
2022-09-15T06:31:40.612Z,99376.19
2022-09-15T06:36:42.132Z,99378.88
2022-09-15T06:42:01.183Z,99386.38
2022-09-15T06:47:04.163Z,99385.84
2022-09-15T06:52:06.314Z,99389.69
2022-09-15T06:57:08.127Z,99394.63
2022-09-15T07:02:09.989Z,99395.69
2022-09-15T07:07:11.495Z,99391.09
2022-09-15T07:12:13.010Z,99390.53
2022-09-15T07:17:14.738Z,99394.50
2022-09-15T07:22:16.178Z,99388.25
2022-09-15T07:27:17.701Z,99402.91
2022-09-15T07:32:19.160Z,99412.16
2022-09-15T07:37:20.623Z,99417.56
2022-09-15T07:42:22.060Z,99426.81
2022-09-15T07:47:24.600Z,99455.19
2022-09-15T07:52:26.053Z,99453.91
2022-09-15T07:57:27.496Z,99464.72
2022-09-15T08:02:28.921Z,99484.59
2022-09-15T08:07:30.667Z,99481.25
2022-09-15T08:12:32.281Z,99502.97
2022-09-15T08:17:34.885Z,99516.53
2022-09-15T08:22:36.691Z,99525.59
2022-09-15T08:27:38.674Z,99534.25
2022-09-15T08:32:40.473Z,99544.94
2022-09-15T08:37:42.784Z,99551.44
2022-09-15T08:42:47.350Z,99559.59
2022-09-15T08:47:56.447Z,99558.16
2022-09-15T08:53:13.157Z,99573.13
2022-09-15T08:58:27.044Z,99583.03
2022-09-15T09:03:49.289Z,99590.00
2022-09-15T09:09:14.982Z,99589.78
2022-09-15T09:14:28.680Z,99594.41
2022-09-15T09:20:00.509Z,99590.50
2022-09-15T09:25:16.223Z,99602.03
2022-09-15T09:30:30.609Z,99616.72
2022-09-15T09:35:41.693Z,99604.63
2022-09-15T09:40:43.230Z,99620.50
2022-09-15T09:45:46.046Z,99621.66
2022-09-15T09:50:49.677Z,99643.22
2022-09-15T09:55:53.355Z,99641.84
2022-09-15T10:00:55.255Z,99615.63
2022-09-15T10:06:06.750Z,99624.78
2022-09-15T10:11:10.418Z,99628.28
2022-09-15T10:16:11.983Z,99620.97
2022-09-15T10:21:14.930Z,99624.47
2022-09-15T10:26:16.438Z,99615.50
2022-09-15T10:31:31.308Z,99637.13
2022-09-15T10:36:32.899Z,99639.16
2022-09-15T10:41:46.265Z,99639.34
2022-09-15T10:47:02.826Z,99634.09
2022-09-15T10:52:44.400Z,99635.84
2022-09-15T10:58:00.583Z,99646.56
2022-09-15T11:03:24.368Z,99651.09
2022-09-15T11:08:36.826Z,99651.28
2022-09-15T11:13:56.563Z,99655.84
2022-09-15T11:19:21.411Z,99669.94
2022-09-15T11:24:31.752Z,99668.34
2022-09-15T11:30:13.840Z,99669.34
2022-09-15T11:35:33.148Z,99666.25
2022-09-15T11:40:50.435Z,99663.00
2022-09-15T11:45:56.389Z,99674.09
2022-09-15T11:51:01.753Z,99684.22
2022-09-15T11:56:11.967Z,99684.50
2022-09-15T12:01:24.498Z,99688.25
2022-09-15T12:06:34.835Z,99690.69
2022-09-15T12:11:42.323Z,99691.66
2022-09-15T12:16:44.614Z,99702.38
2022-09-15T12:22:12.362Z,99702.06
2022-09-15T12:27:16.886Z,99715.94
2022-09-15T12:32:27.639Z,99721.28
2022-09-15T12:37:35.570Z,99720.47
2022-09-15T12:42:37.263Z,99717.56
2022-09-15T12:48:14.086Z,99717.97
2022-09-15T12:53:44.524Z,99718.94
2022-09-15T12:58:49.730Z,99718.91
2022-09-15T13:03:51.269Z,99713.09
2022-09-15T13:09:01.952Z,99712.97
2022-09-15T13:14:03.381Z,99704.16
2022-09-15T13:19:21.250Z,99712.03
2022-09-15T13:24:36.008Z,99707.63
2022-09-15T13:29:47.137Z,99714.38
2022-09-15T13:35:17.680Z,99708.22
2022-09-15T13:40:49.688Z,99700.78
2022-09-15T13:46:06.400Z,99692.97
2022-09-15T13:51:25.240Z,99690.78
2022-09-15T13:56:29.017Z,99682.16
2022-09-15T14:01:35.728Z,99684.22
2022-09-15T14:06:40.348Z,99677.41
2022-09-15T14:11:43.917Z,99675.38
2022-09-15T14:16:49.667Z,99662.47
2022-09-15T14:21:53.820Z,99660.72
2022-09-15T14:27:09.592Z,99670.34
2022-09-15T14:32:16.976Z,99670.84
2022-09-15T14:37:27.963Z,99672.38
2022-09-15T14:42:35.206Z,99662.63
2022-09-15T14:47:38.644Z,99670.34
2022-09-15T14:52:48.249Z,99663.09
2022-09-15T14:58:00.879Z,99667.88
2022-09-15T15:03:28.066Z,99670.03
2022-09-15T15:08:45.549Z,99671.81
2022-09-15T15:13:52.098Z,99667.38
2022-09-15T15:18:56.189Z,99655.88
2022-09-15T15:23:57.985Z,99654.94
2022-09-15T15:28:59.884Z,99653.06
2022-09-15T15:34:07.796Z,99659.09
2022-09-15T15:39:24.637Z,99655.81
2022-09-15T15:44:28.921Z,99665.88
2022-09-15T15:49:32.681Z,99664.84
2022-09-15T15:54:34.698Z,99661.31
2022-09-15T15:59:37.347Z,99669.28
2022-09-15T16:04:38.780Z,99652.16
2022-09-15T16:09:40.330Z,99652.09
2022-09-15T16:14:42.107Z,99663.97
2022-09-15T16:19:43.546Z,99675.13
2022-09-15T16:24:45.122Z,99666.22
2022-09-15T16:29:46.877Z,99674.13
2022-09-15T16:34:51.225Z,99680.59
2022-09-15T16:39:54.347Z,99686.00
2022-09-15T16:44:55.898Z,99686.00
2022-09-15T16:49:57.394Z,99688.84
2022-09-15T16:54:58.879Z,99696.56
2022-09-15T17:00:00.300Z,99700.19
2022-09-15T17:05:01.776Z,99705.38
2022-09-15T17:10:03.565Z,99708.88
2022-09-15T17:15:19.669Z,99723.91
2022-09-15T17:20:22.533Z,99712.91
2022-09-15T17:25:35.577Z,99711.25
2022-09-15T17:30:37.164Z,99705.59
2022-09-15T17:35:38.731Z,99714.28
2022-09-15T17:40:40.213Z,99711.94
2022-09-15T17:45:42.220Z,99708.16
2022-09-15T17:50:45.278Z,99706.53
2022-09-15T17:55:47.132Z,99713.44
2022-09-15T18:00:49.571Z,99724.19
2022-09-15T18:05:52.519Z,99717.28
2022-09-15T18:10:54.560Z,99717.66
2022-09-15T18:15:56.877Z,99727.19
2022-09-15T18:20:58.545Z,99726.66
2022-09-15T18:25:59.983Z,99729.84
2022-09-15T18:31:01.492Z,99736.31
2022-09-15T18:36:06.779Z,99731.41
2022-09-15T18:41:10.627Z,99740.34
2022-09-15T18:46:12.074Z,99740.84
2022-09-15T18:51:23.708Z,99755.00
2022-09-15T18:56:30.594Z,99760.34
2022-09-15T19:01:32.117Z,99772.97
2022-09-15T19:06:35.452Z,99782.78
2022-09-15T19:11:36.854Z,99789.22
2022-09-15T19:16:56.409Z,99787.06
2022-09-15T19:21:58.737Z,99794.47
2022-09-15T19:27:01.256Z,99793.19
2022-09-15T19:32:04.798Z,99799.34
2022-09-15T19:37:10.795Z,99800.34
2022-09-15T19:47:17.146Z,99810.09
2022-09-15T19:52:18.582Z,99802.97
2022-09-15T19:57:21.114Z,99807.34
2022-09-15T20:02:22.774Z,99804.72
2022-09-15T20:07:24.209Z,99809.81
2022-09-15T20:12:26.397Z,99805.34
2022-09-15T20:17:27.907Z,99809.47
2022-09-15T20:22:29.334Z,99811.59
2022-09-15T20:27:31.112Z,99811.03
2022-09-15T20:32:34.505Z,99812.13
2022-09-15T20:37:37.633Z,99815.91
2022-09-15T20:42:39.269Z,99816.91
2022-09-15T20:47:40.703Z,99818.56
2022-09-15T20:52:42.278Z,99824.34
2022-09-15T20:57:43.679Z,99827.72
2022-09-15T21:02:45.157Z,99836.34
2022-09-15T21:07:48.220Z,99829.56
2022-09-15T21:12:49.676Z,99822.94
2022-09-15T21:17:51.054Z,99831.00
2022-09-15T21:22:56.310Z,99838.13
2022-09-15T21:27:57.748Z,99839.25
2022-09-15T21:32:59.359Z,99841.97
2022-09-15T21:38:00.919Z,99843.81
2022-09-15T21:43:03.313Z,99841.81
2022-09-15T21:48:04.782Z,99854.56
2022-09-15T21:53:06.178Z,99846.91
2022-09-15T21:58:07.561Z,99847.91
2022-09-15T22:03:10.798Z,99847.50
2022-09-15T22:08:14.205Z,99840.28
2022-09-15T22:13:15.647Z,99835.16
2022-09-15T22:18:17.481Z,99846.44
2022-09-15T22:23:18.902Z,99851.31
2022-09-15T22:28:20.336Z,99847.56
2022-09-15T22:33:21.732Z,99852.38
2022-09-15T22:38:24.742Z,99852.47
2022-09-15T22:43:26.123Z,99857.50
2022-09-15T22:48:28.363Z,99865.13
2022-09-15T22:53:29.930Z,99856.66
2022-09-15T22:58:32.790Z,99859.59
2022-09-15T23:03:34.204Z,99863.59
2022-09-15T23:08:36.583Z,99856.72
2022-09-15T23:13:39.158Z,99863.34
2022-09-15T23:18:40.601Z,99870.44
2022-09-15T23:23:46.630Z,99862.44
2022-09-15T23:28:49.480Z,99874.19
2022-09-15T23:33:50.982Z,99867.09
2022-09-15T23:38:52.428Z,99870.47
2022-09-15T23:43:55.467Z,99876.53
2022-09-15T23:48:57.060Z,99879.50
2022-09-15T23:53:58.773Z,99877.84
2022-09-15T23:59:00.262Z,99883.44
